createdAt,value
2018-12-08T00:00:56.724Z,22.80
2018-12-08T00:11:02.190Z,22.80
2018-12-08T00:21:06.690Z,22.80
2018-12-08T00:31:21.856Z,22.80
2018-12-08T00:41:25.969Z,22.80
2018-12-08T00:51:30.078Z,22.80
2018-12-08T01:01:34.889Z,22.80
2018-12-08T01:11:39.075Z,22.80
2018-12-08T01:21:43.158Z,22.80
2018-12-08T01:31:47.365Z,22.80
2018-12-08T01:41:51.479Z,22.80
2018-12-08T01:51:55.807Z,22.80
2018-12-08T02:01:59.911Z,22.80
2018-12-08T02:12:04.062Z,22.80
2018-12-08T02:22:08.364Z,22.80
2018-12-08T02:32:12.481Z,22.80
2018-12-08T02:42:16.677Z,22.80
2018-12-08T02:52:20.722Z,22.90
2018-12-08T03:02:24.867Z,22.80
2018-12-08T03:12:29.205Z,22.90
2018-12-08T03:22:33.553Z,22.90
2018-12-08T03:32:37.677Z,22.90
2018-12-08T03:42:41.799Z,22.80
2018-12-08T03:52:45.893Z,22.90
2018-12-08T04:02:49.947Z,22.80
2018-12-08T04:12:54.040Z,22.80
2018-12-08T04:22:58.161Z,22.80
2018-12-08T04:33:02.243Z,22.80
2018-12-08T04:43:06.785Z,22.90
2018-12-08T04:53:10.991Z,22.90
2018-12-08T05:03:15.089Z,22.90
2018-12-08T05:13:19.349Z,22.90
2018-12-08T05:23:23.549Z,22.90
2018-12-08T05:33:27.620Z,22.90
2018-12-08T05:43:31.646Z,22.90
2018-12-08T05:53:35.700Z,22.90
2018-12-08T06:03:39.924Z,22.90
2018-12-08T06:13:44.060Z,22.90
2018-12-08T06:23:48.216Z,22.90
2018-12-08T06:33:52.352Z,22.90
2018-12-08T06:43:56.612Z,22.90
2018-12-08T06:54:00.744Z,22.90
2018-12-08T07:04:04.848Z,22.90
2018-12-08T07:14:08.987Z,22.90
2018-12-08T07:24:13.101Z,22.90
2018-12-08T07:34:17.379Z,22.90
2018-12-08T07:44:21.566Z,22.90
2018-12-08T07:54:26.001Z,22.90
2018-12-08T08:04:30.103Z,22.90
2018-12-08T08:14:34.249Z,22.90
2018-12-08T08:24:38.620Z,22.90
2018-12-08T08:34:42.856Z,22.90
2018-12-08T08:44:46.975Z,23.00
2018-12-08T08:54:51.090Z,23.00
2018-12-08T09:04:55.361Z,23.00
2018-12-08T09:14:59.513Z,23.00
2018-12-08T09:25:03.995Z,23.00
2018-12-08T09:35:08.826Z,23.00
2018-12-08T09:45:13.111Z,23.00
2018-12-08T09:55:17.573Z,23.00
2018-12-08T10:05:21.691Z,23.00
2018-12-08T10:15:26.011Z,23.00
2018-12-08T10:25:30.149Z,23.10
2018-12-08T10:35:35.148Z,23.00
2018-12-08T10:45:39.271Z,23.00
2018-12-08T10:55:43.401Z,23.10
2018-12-08T11:05:47.570Z,23.10
2018-12-08T11:15:51.742Z,23.10
2018-12-08T11:25:55.969Z,23.10
2018-12-08T11:36:00.108Z,23.20
2018-12-08T11:46:04.152Z,23.20
2018-12-08T11:56:08.364Z,23.20
2018-12-08T12:06:12.603Z,23.20
2018-12-08T12:16:18.596Z,23.20
2018-12-08T12:26:22.865Z,23.20
2018-12-08T12:36:27.267Z,23.20
2018-12-08T12:46:31.323Z,23.20
2018-12-08T12:56:35.611Z,23.20
2018-12-08T13:06:39.695Z,23.20
2018-12-08T13:16:43.997Z,23.20
2018-12-08T13:26:48.237Z,23.20
2018-12-08T13:36:53.120Z,23.20
2018-12-08T13:46:57.247Z,23.20
2018-12-08T14:03:06.657Z,23.60
2018-12-08T14:21:19.613Z,18.30
2018-12-08T14:31:23.927Z,11.00
2018-12-08T14:41:28.177Z,9.60
2018-12-08T14:51:32.426Z,8.90
2018-12-08T15:01:36.537Z,8.50
2018-12-08T15:11:40.817Z,8.20
2018-12-08T15:21:44.949Z,7.90
2018-12-08T15:31:49.123Z,7.70
2018-12-08T15:41:53.205Z,7.40
2018-12-08T15:51:58.187Z,7.20
2018-12-08T16:02:02.445Z,7.00
2018-12-08T16:12:06.639Z,6.70
2018-12-08T16:22:10.777Z,6.50
2018-12-08T16:32:14.893Z,6.50
2018-12-08T16:42:19.048Z,6.50
2018-12-08T16:52:23.189Z,6.60
2018-12-08T17:02:27.393Z,6.80
2018-12-08T17:12:31.598Z,6.90
2018-12-08T17:22:35.703Z,7.00
2018-12-08T17:32:39.848Z,6.90
2018-12-08T17:42:44.098Z,6.50
2018-12-08T17:52:48.237Z,6.10
2018-12-08T18:02:52.635Z,6.00
2018-12-08T18:12:56.943Z,5.90
2018-12-08T18:23:01.127Z,5.80
2018-12-08T18:33:05.481Z,5.70
2018-12-08T18:43:09.654Z,5.60
2018-12-08T18:53:13.759Z,5.80
2018-12-08T19:03:17.962Z,6.00
2018-12-08T19:13:22.210Z,6.20
2018-12-08T19:23:27.858Z,6.30
2018-12-08T19:33:31.990Z,6.40
2018-12-08T19:43:36.080Z,6.40
2018-12-08T19:53:40.476Z,6.40
2018-12-08T20:03:44.604Z,6.50
2018-12-08T20:13:49.228Z,6.60
2018-12-08T20:23:53.492Z,6.60
2018-12-08T20:33:57.774Z,6.50
2018-12-08T20:44:01.873Z,6.30
2018-12-08T20:54:06.030Z,6.10
2018-12-08T21:04:10.141Z,5.90
2018-12-08T21:14:14.214Z,5.80
2018-12-08T21:24:18.373Z,5.70
2018-12-08T21:34:23.629Z,5.90
2018-12-08T21:44:27.757Z,6.00
2018-12-08T21:54:31.908Z,6.10
2018-12-08T22:04:36.010Z,6.20
2018-12-08T22:14:59.106Z,6.20
2018-12-08T22:25:03.376Z,6.20
2018-12-08T22:35:07.731Z,6.20
2018-12-08T22:45:12.162Z,6.00
2018-12-08T22:55:16.472Z,6.00
2018-12-08T23:05:20.769Z,6.00
2018-12-08T23:15:25.962Z,5.90
2018-12-08T23:25:30.093Z,6.00
2018-12-08T23:35:34.257Z,6.00
2018-12-08T23:45:38.431Z,6.00
2018-12-08T23:55:42.577Z,6.10
